Time;durP1;ratioP1;P1;durP2;ratioP2;P2;SDS_P1;SDS_P2;PMS_P1;PMS_P2;Temp;Humidity;BMP_temperature;BMP_pressure;BME280_temperature;BME280_humidity;BME280_pressure;Samples;Min_cycle;Max_cycle;Signal;HPM_P1;HPM_P2
2021/09/30 00:00:16;;;;;;;4.15;1.50;;;13.20;96.30;;;;;;5008161;28;20061;-67
2021/09/30 00:02:42;;;;;;;3.35;1.52;;;13.20;96.30;;;;;;5008907;28;20034;-67
2021/09/30 00:05:09;;;;;;;2.85;1.27;;;13.20;96.30;;;;;;5005991;28;20022;-67
2021/09/30 00:07:35;;;;;;;4.45;1.50;;;13.20;96.20;;;;;;5013603;28;20072;-67
2021/09/30 00:10:02;;;;;;;2.22;1.38;;;13.20;96.20;;;;;;5013294;28;20034;-67
2021/09/30 00:12:29;;;;;;;2.72;1.65;;;13.10;96.30;;;;;;5012315;28;20034;-67
2021/09/30 00:15:00;;;;;;;3.65;1.80;;;13.20;96.20;;;;;;5013530;28;20053;-67
2021/09/30 00:41:41;;;;;;;1.52;1.10;;;12.90;96.30;;;;;;5014100;28;20073;-67
2021/09/30 00:45:27;;;;;;;;;;;12.90;96.40;;;;;;5012260;28;20038;-67
2021/09/30 00:47:10;;;;;;;1.75;1.30;;;12.90;96.40;;;;;;5013596;28;20005;-67
2021/09/30 00:49:55;;;;;;;3.15;1.73;;;12.90;96.50;;;;;;5006697;28;20030;-67
2021/09/30 00:52:42;;;;;;;2.75;1.60;;;12.90;96.50;;;;;;5010297;28;20057;-67
2021/09/30 01:19:06;;;;;;;1.33;1.00;;;12.70;96.20;;;;;;5010413;28;20428;-67
2021/09/30 01:22:53;;;;;;;2.85;1.70;;;12.70;96.20;;;;;;5012996;28;20037;-67
2021/09/30 01:26:09;;;;;;;2.63;1.30;;;12.70;96.30;;;;;;4993168;28;20134;-67
2021/09/30 01:46:45;;;;;;;2.25;1.27;;;12.50;96.40;;;;;;5013122;28;20060;-67
2021/09/30 01:59:11;;;;;;;1.85;1.02;;;12.60;96.40;;;;;;5011251;28;20060;-67
2021/09/30 02:58:32;;;;;;;6.65;1.60;;;12.40;96.50;;;;;;4994157;28;20034;-67
2021/09/30 03:01:07;;;;;;;2.47;1.35;;;12.40;96.50;;;;;;4994502;28;20042;-67
2021/09/30 03:03:35;;;;;;;2.38;1.48;;;12.40;96.50;;;;;;5003857;28;20379;-67
2021/09/30 03:06:01;;;;;;;1.92;1.50;;;12.40;96.60;;;;;;4991972;28;20032;-67
2021/09/30 03:08:29;;;;;;;2.78;1.50;;;12.40;96.60;;;;;;5006680;28;20105;-67
2021/09/30 03:10:58;;;;;;;2.47;1.50;;;12.40;96.60;;;;;;5011469;28;20064;-67
2021/09/30 03:13:26;;;;;;;3.90;1.63;;;12.50;96.60;;;;;;5001742;28;20407;-67
2021/09/30 03:16:07;;;;;;;3.28;1.58;;;12.40;96.50;;;;;;4993747;28;20030;-66
2021/09/30 03:23:34;;;;;;;2.95;1.52;;;12.50;96.50;;;;;;5009016;28;20034;-67
2021/09/30 03:26:00;;;;;;;3.60;1.42;;;12.50;96.50;;;;;;5011071;28;20026;-67
2021/09/30 03:28:27;;;;;;;4.75;1.55;;;12.40;96.50;;;;;;5008460;28;20041;-67
2021/09/30 03:30:55;;;;;;;2.85;1.42;;;12.50;96.50;;;;;;5011061;28;20029;-67
2021/09/30 03:33:23;;;;;;;3.53;1.67;;;12.50;96.50;;;;;;5002404;28;20034;-67
2021/09/30 03:35:49;;;;;;;4.03;1.60;;;12.50;96.40;;;;;;5011127;28;20030;-66
2021/09/30 03:38:15;;;;;;;2.35;1.50;;;12.50;96.40;;;;;;5008946;28;20029;-66
2021/09/30 03:40:42;;;;;;;2.40;1.60;;;12.50;96.40;;;;;;5014650;28;20437;-66
2021/09/30 03:43:08;;;;;;;4.38;1.67;;;12.50;96.50;;;;;;5008595;28;20037;-66
2021/09/30 03:45:34;;;;;;;2.78;1.60;;;12.50;96.50;;;;;;5014714;28;20022;-66
2021/09/30 03:47:59;;;;;;;4.28;1.67;;;12.50;96.60;;;;;;5014092;28;20036;-67
2021/09/30 03:50:28;;;;;;;3.33;1.55;;;12.50;96.50;;;;;;5013388;28;20108;-66
2021/09/30 03:53:01;;;;;;;3.03;1.58;;;12.50;96.60;;;;;;5013714;28;20040;-67
2021/09/30 04:00:56;;;;;;;4.95;1.50;;;12.40;96.50;;;;;;5002626;28;19968;-66
2021/09/30 04:03:21;;;;;;;2.75;1.63;;;12.30;96.50;;;;;;4997827;28;20140;-66
2021/09/30 04:05:47;;;;;;;3.20;1.52;;;12.40;96.60;;;;;;5012667;28;20505;-67
2021/09/30 04:08:12;;;;;;;4.10;1.58;;;12.40;96.60;;;;;;5009311;28;20390;-66
2021/09/30 04:10:38;;;;;;;2.55;1.63;;;12.40;96.60;;;;;;5011975;28;20037;-66
2021/09/30 04:13:03;;;;;;;4.35;1.65;;;12.40;96.60;;;;;;5000567;28;20026;-66
2021/09/30 04:15:29;;;;;;;2.47;1.70;;;12.40;96.60;;;;;;5010651;28;20072;-66
2021/09/30 04:17:54;;;;;;;2.47;1.70;;;12.30;96.70;;;;;;5014498;28;20113;-66
2021/09/30 04:20:20;;;;;;;4.40;1.80;;;12.30;96.70;;;;;;5011763;28;20502;-66
2021/09/30 04:22:45;;;;;;;4.57;1.58;;;12.30;96.70;;;;;;5013231;28;20493;-66
2021/09/30 04:25:12;;;;;;;4.07;1.80;;;12.30;96.70;;;;;;5012971;28;20034;-66
2021/09/30 04:27:38;;;;;;;6.20;1.70;;;12.30;96.70;;;;;;5014351;28;20036;-66
2021/09/30 04:30:05;;;;;;;3.88;1.50;;;12.40;96.70;;;;;;4997275;28;20058;-67
2021/09/30 04:32:30;;;;;;;3.28;1.70;;;12.30;96.70;;;;;;5012230;28;20022;-66
2021/09/30 04:34:56;;;;;;;2.45;1.50;;;12.30;96.60;;;;;;5005849;28;20145;-67
2021/09/30 04:37:22;;;;;;;4.68;1.70;;;12.30;96.70;;;;;;5014410;28;20117;-67
2021/09/30 04:39:47;;;;;;;3.70;1.60;;;12.30;96.70;;;;;;5011842;28;20056;-67
2021/09/30 04:42:13;;;;;;;4.68;1.90;;;12.30;96.60;;;;;;5007300;28;20069;-67
2021/09/30 04:44:39;;;;;;;3.63;1.60;;;12.30;96.70;;;;;;5004611;28;20041;-67
2021/09/30 04:47:04;;;;;;;2.10;1.45;;;12.30;96.70;;;;;;4998645;28;20088;-67
2021/09/30 04:49:29;;;;;;;3.80;1.67;;;12.30;96.80;;;;;;4998744;28;20110;-67
2021/09/30 04:51:55;;;;;;;4.25;1.60;;;12.30;96.80;;;;;;4998032;28;20014;-67
2021/09/30 04:54:20;;;;;;;4.25;1.67;;;12.30;96.80;;;;;;5010975;28;20053;-67
2021/09/30 04:56:46;;;;;;;3.50;1.50;;;12.30;96.80;;;;;;5012787;28;20108;-67
2021/09/30 04:59:11;;;;;;;4.95;1.67;;;12.30;96.80;;;;;;5005365;28;20089;-67
2021/09/30 05:01:38;;;;;;;3.20;1.70;;;12.30;96.80;;;;;;5013738;28;20092;-68
2021/09/30 05:04:04;;;;;;;5.47;1.70;;;12.30;96.80;;;;;;5011961;28;20026;-68
2021/09/30 05:06:29;;;;;;;2.45;1.80;;;12.30;96.80;;;;;;5010641;28;20032;-68
2021/09/30 05:08:59;;;;;;;4.18;1.55;;;12.30;96.70;;;;;;5012712;28;20057;-68
2021/09/30 05:11:31;;;;;;;4.35;2.20;;;12.30;96.80;;;;;;5011225;28;20478;-68
2021/09/30 05:13:58;;;;;;;3.28;1.40;;;12.30;96.80;;;;;;5012525;28;20073;-68
2021/09/30 05:16:24;;;;;;;2.38;1.38;;;12.30;96.80;;;;;;5012478;28;20427;-68
2021/09/30 05:18:54;;;;;;;2.28;1.30;;;12.30;96.80;;;;;;5012083;28;20141;-68
2021/09/30 05:21:19;;;;;;;2.13;1.30;;;12.40;96.80;;;;;;5012825;28;20125;-68
2021/09/30 05:23:45;;;;;;;7.15;1.52;;;12.50;96.80;;;;;;5011269;28;20108;-68
2021/09/30 05:26:10;;;;;;;4.28;1.40;;;12.50;96.70;;;;;;5002806;28;20110;-68
2021/09/30 05:28:36;;;;;;;2.40;1.60;;;12.50;96.70;;;;;;4996831;28;20049;-67
2021/09/30 05:31:01;;;;;;;2.95;1.70;;;12.60;96.70;;;;;;5004493;28;20031;-66
2021/09/30 05:33:27;;;;;;;3.45;2.03;;;12.60;96.60;;;;;;5008858;28;20033;-67
2021/09/30 05:35:54;;;;;;;5.45;1.80;;;12.70;96.70;;;;;;5000556;28;20087;-67
2021/09/30 05:38:19;;;;;;;2.03;1.33;;;12.80;96.60;;;;;;5002160;28;20022;-67
2021/09/30 05:40:48;;;;;;;1.52;1.40;;;12.90;96.50;;;;;;5003976;28;20060;-70
2021/09/30 05:43:20;;;;;;;4.75;1.50;;;12.90;96.50;;;;;;4996324;28;20082;-66
2021/09/30 05:45:46;;;;;;;5.72;1.80;;;13.00;96.40;;;;;;4999896;28;20033;-66
2021/09/30 05:48:12;;;;;;;7.78;2.13;;;13.20;96.30;;;;;;5004337;28;20426;-67
2021/09/30 05:50:37;;;;;;;3.78;1.70;;;13.20;96.20;;;;;;5005786;28;20487;-66
2021/09/30 05:53:03;;;;;;;5.45;1.73;;;13.30;96.20;;;;;;4997038;28;20462;-66
2021/09/30 05:55:29;;;;;;;2.92;1.50;;;13.30;96.00;;;;;;4998515;28;20042;-65
2021/09/30 05:57:54;;;;;;;3.05;1.42;;;13.30;95.90;;;;;;5009052;28;20091;-65
2021/09/30 06:00:30;;;;;;;3.00;1.70;;;13.40;95.80;;;;;;5004902;28;20034;-65
2021/09/30 06:10:55;;;;;;;3.00;1.50;;;13.60;95.50;;;;;;5001565;28;20115;-65
2021/09/30 06:16:20;;;;;;;4.45;1.70;;;13.60;95.40;;;;;;5001940;28;20585;-65
2021/09/30 06:18:46;;;;;;;5.20;1.70;;;13.60;95.50;;;;;;5007710;28;20054;-66
2021/09/30 06:21:12;;;;;;;2.78;1.35;;;13.60;95.40;;;;;;5008981;28;20059;-65
2021/09/30 06:23:38;;;;;;;2.22;1.40;;;13.70;95.40;;;;;;5007568;28;20460;-67
2021/09/30 06:26:04;;;;;;;4.32;1.58;;;13.70;95.30;;;;;;5007796;28;20398;-66
2021/09/30 06:28:30;;;;;;;5.63;1.75;;;13.70;95.30;;;;;;5002922;28;20376;-66
2021/09/30 06:30:55;;;;;;;4.68;2.15;;;13.80;95.50;;;;;;5002630;28;20088;-66
2021/09/30 06:33:23;;;;;;;5.03;1.75;;;13.80;95.50;;;;;;5007606;28;20046;-65
2021/09/30 06:35:50;;;;;;;4.95;1.60;;;13.80;95.50;;;;;;5010140;28;20057;-66
2021/09/30 06:38:15;;;;;;;4.15;1.50;;;13.90;95.50;;;;;;5004059;28;20558;-66
2021/09/30 06:40:41;;;;;;;5.18;1.65;;;13.90;95.40;;;;;;5004469;28;20034;-66
2021/09/30 06:43:06;;;;;;;2.95;1.63;;;13.90;95.40;;;;;;4991648;28;20084;-66
2021/09/30 06:45:32;;;;;;;1.73;1.15;;;14.00;95.20;;;;;;5007858;28;20029;-66
2021/09/30 06:47:57;;;;;;;3.85;1.30;;;13.90;95.10;;;;;;5002807;28;20029;-66
2021/09/30 06:50:23;;;;;;;3.55;1.70;;;14.00;95.10;;;;;;4998602;28;20030;-67
2021/09/30 06:52:48;;;;;;;5.32;1.98;;;14.00;95.10;;;;;;5000118;28;20482;-67
2021/09/30 06:55:14;;;;;;;5.82;1.50;;;14.10;94.90;;;;;;5007050;28;20072;-67
2021/09/30 06:57:40;;;;;;;3.90;1.88;;;14.00;94.80;;;;;;5001412;28;20042;-67
2021/09/30 07:00:08;;;;;;;5.95;1.73;;;14.10;94.80;;;;;;4992285;28;20138;-67
2021/09/30 07:02:37;;;;;;;5.57;1.65;;;14.10;94.70;;;;;;5002685;28;20375;-67
2021/09/30 07:05:03;;;;;;;3.78;1.48;;;14.10;94.70;;;;;;4997130;28;20037;-66
2021/09/30 07:07:28;;;;;;;3.58;1.55;;;14.20;94.60;;;;;;5006496;28;20120;-66
2021/09/30 07:09:54;;;;;;;4.07;1.50;;;14.20;94.60;;;;;;4999579;28;20391;-67
2021/09/30 07:12:19;;;;;;;3.03;1.58;;;14.20;94.40;;;;;;5007519;28;20034;-66
2021/09/30 07:14:45;;;;;;;3.10;1.35;;;14.20;94.40;;;;;;4998952;28;20095;-67
2021/09/30 07:17:10;;;;;;;4.82;1.70;;;14.30;94.50;;;;;;4999369;28;20034;-67
2021/09/30 07:19:36;;;;;;;2.92;1.55;;;14.30;94.30;;;;;;4997007;28;20022;-66
2021/09/30 07:22:07;;;;;;;2.83;1.63;;;14.30;94.30;;;;;;5006210;28;20041;-66
2021/09/30 07:24:36;;;;;;;3.60;1.67;;;14.30;94.20;;;;;;5000739;28;20127;-65
2021/09/30 07:27:03;;;;;;;2.30;1.30;;;14.30;94.10;;;;;;5004588;28;20041;-65
2021/09/30 07:29:28;;;;;;;5.68;1.80;;;14.40;94.20;;;;;;4999041;28;20045;-67
2021/09/30 07:31:54;;;;;;;5.47;1.80;;;14.40;94.10;;;;;;4997425;28;20091;-66
2021/09/30 07:34:19;;;;;;;2.22;1.50;;;14.40;94.20;;;;;;4996848;28;20383;-66
2021/09/30 07:36:45;;;;;;;3.67;1.70;;;14.40;94.10;;;;;;5002341;28;20022;-66
2021/09/30 07:39:11;;;;;;;4.13;1.60;;;14.40;94.10;;;;;;5007847;28;20033;-66
2021/09/30 07:41:37;;;;;;;2.45;1.38;;;14.50;94.30;;;;;;4998427;28;20042;-66
2021/09/30 07:44:04;;;;;;;7.28;1.85;;;14.40;94.20;;;;;;4997255;28;20029;-67
2021/09/30 07:46:32;;;;;;;2.90;1.30;;;14.50;94.00;;;;;;4999093;28;20030;-67
2021/09/30 07:48:58;;;;;;;3.47;1.38;;;14.50;94.00;;;;;;5007127;28;20018;-66
2021/09/30 07:51:23;;;;;;;2.72;1.48;;;14.50;94.00;;;;;;5008043;28;20393;-66
2021/09/30 07:53:49;;;;;;;2.45;1.45;;;14.50;94.00;;;;;;5005470;28;20049;-66
2021/09/30 07:56:17;;;;;;;3.40;1.70;;;14.60;93.90;;;;;;5004657;28;20028;-67
2021/09/30 07:58:43;;;;;;;2.80;1.75;;;14.60;93.90;;;;;;4997593;28;20030;-66
2021/09/30 08:01:08;;;;;;;3.72;1.60;;;14.70;93.90;;;;;;5008539;28;20034;-66
2021/09/30 08:03:35;;;;;;;5.60;1.80;;;14.70;93.80;;;;;;5000285;28;20022;-66
2021/09/30 08:06:00;;;;;;;5.53;1.70;;;14.70;93.70;;;;;;5000633;28;20038;-64
2021/09/30 08:08:26;;;;;;;3.28;1.55;;;14.80;93.60;;;;;;4999219;28;20059;-67
2021/09/30 08:10:52;;;;;;;7.03;2.08;;;14.80;93.60;;;;;;5004361;28;20096;-66
2021/09/30 08:13:18;;;;;;;2.17;1.30;;;14.90;93.60;;;;;;4998707;28;20030;-67
2021/09/30 08:15:43;;;;;;;3.35;1.73;;;14.90;93.40;;;;;;5005051;28;20124;-67
2021/09/30 08:18:09;;;;;;;2.85;1.63;;;14.90;93.40;;;;;;5006029;28;20029;-68
2021/09/30 08:20:41;;;;;;;3.53;1.80;;;15.00;93.40;;;;;;4998845;28;20084;-70
2021/09/30 08:23:11;;;;;;;3.40;1.27;;;15.00;93.30;;;;;;4998817;28;20053;-70
2021/09/30 08:25:37;;;;;;;6.50;2.13;;;15.10;93.30;;;;;;5008851;28;20526;-69
2021/09/30 08:28:03;;;;;;;4.95;1.95;;;15.10;93.30;;;;;;5001639;28;20368;-69
2021/09/30 08:30:29;;;;;;;5.05;2.20;;;15.20;93.20;;;;;;5007065;28;20033;-68
2021/09/30 08:32:55;;;;;;;5.00;1.77;;;15.30;93.00;;;;;;5003574;28;20029;-69
2021/09/30 08:35:20;;;;;;;6.07;2.00;;;15.30;92.90;;;;;;5005687;28;20049;-69
2021/09/30 08:37:46;;;;;;;4.47;2.40;;;15.40;92.70;;;;;;4995712;28;20026;-68
2021/09/30 08:40:12;;;;;;;2.72;1.95;;;15.50;92.70;;;;;;5005774;28;20031;-69
2021/09/30 08:42:38;;;;;;;5.65;1.70;;;15.50;92.50;;;;;;5002168;28;20042;-69
2021/09/30 08:45:05;;;;;;;3.72;1.70;;;15.60;92.50;;;;;;5003253;28;20463;-69
2021/09/30 08:47:30;;;;;;;3.90;1.50;;;15.70;92.40;;;;;;4994426;28;20035;-69
2021/09/30 08:49:56;;;;;;;4.47;2.20;;;15.70;92.30;;;;;;4997259;28;20113;-70
2021/09/30 08:52:22;;;;;;;5.68;2.30;;;15.80;92.50;;;;;;5004877;28;20544;-68
2021/09/30 08:54:47;;;;;;;5.80;2.00;;;15.90;92.60;;;;;;5008602;28;20046;-68
2021/09/30 08:57:13;;;;;;;3.50;1.70;;;16.00;92.30;;;;;;5009141;28;20030;-70
2021/09/30 08:59:40;;;;;;;5.65;1.90;;;16.10;92.00;;;;;;4996118;28;20034;-69
2021/09/30 09:02:14;;;;;;;3.50;1.52;;;16.10;91.90;;;;;;5002763;28;20038;-69
2021/09/30 09:04:59;;;;;;;3.28;1.70;;;16.20;91.60;;;;;;5007214;28;20026;-69
2021/09/30 09:07:28;;;;;;;;;;;16.20;91.60;;;;;;4994604;28;20132;-69
2021/09/30 09:09:56;;;;;;;5.47;1.70;;;16.30;92.00;;;;;;5006464;28;20342;-68
2021/09/30 09:12:23;;;;;;;5.88;1.70;;;16.30;92.00;;;;;;5009876;28;20026;-69
2021/09/30 09:14:48;;;;;;;3.33;1.45;;;16.40;91.60;;;;;;5009171;28;20036;-69
2021/09/30 09:17:17;;;;;;;3.60;1.80;;;16.40;91.30;;;;;;5012235;28;20034;-69
2021/09/30 09:19:45;;;;;;;2.15;1.52;;;16.50;91.50;;;;;;5010132;28;20089;-67
2021/09/30 09:22:20;;;;;;;4.72;1.60;;;16.60;91.20;;;;;;4997186;28;20062;-67
2021/09/30 09:25:04;;;;;;;3.80;1.75;;;16.60;91.20;;;;;;4993827;28;20023;-66
2021/09/30 09:27:55;;;;;;;3.83;1.38;;;16.70;91.00;;;;;;5009431;28;20386;-67
2021/09/30 09:30:40;;;;;;;4.63;1.75;;;16.70;90.80;;;;;;5011404;28;20044;-66
2021/09/30 09:33:12;;;;;;;4.75;1.83;;;16.70;90.80;;;;;;5009474;28;20014;-65
2021/09/30 09:36:02;;;;;;;3.58;1.75;;;16.70;90.50;;;;;;4993724;28;20042;-65
2021/09/30 09:38:32;;;;;;;7.72;1.90;;;16.70;90.50;;;;;;4993627;28;20121;-65
2021/09/30 09:41:04;;;;;;;4.07;1.50;;;16.70;90.40;;;;;;5003914;28;20069;-65
2021/09/30 09:43:41;;;;;;;3.67;1.73;;;16.70;90.30;;;;;;5011178;28;20057;-66
2021/09/30 09:46:09;;;;;;;4.65;2.00;;;16.70;90.30;;;;;;4993568;28;20027;-65
2021/09/30 09:48:36;;;;;;;5.43;1.85;;;16.60;90.10;;;;;;5008355;28;20475;-66
2021/09/30 09:51:08;;;;;;;4.75;2.22;;;16.60;90.10;;;;;;5018943;28;20033;-66
2021/09/30 09:53:34;;;;;;;4.30;1.80;;;16.50;90.00;;;;;;5010237;28;20434;-65
2021/09/30 09:56:16;;;;;;;5.05;1.77;;;16.50;90.10;;;;;;4997961;28;20896;-66
2021/09/30 09:59:02;;;;;;;4.75;1.60;;;16.50;90.00;;;;;;4993286;28;20042;-65
2021/09/30 10:01:37;;;;;;;2.42;1.23;;;16.40;89.90;;;;;;5009301;28;20056;-66
2021/09/30 10:04:03;;;;;;;2.80;1.55;;;16.40;90.00;;;;;;5005809;28;20121;-64
2021/09/30 10:06:31;;;;;;;3.92;1.50;;;16.40;90.00;;;;;;5010168;28;20121;-65
2021/09/30 10:08:58;;;;;;;4.50;1.90;;;16.40;90.00;;;;;;5017587;28;20025;-64
2021/09/30 10:11:26;;;;;;;4.20;1.50;;;16.40;90.00;;;;;;5012614;28;20026;-66
2021/09/30 10:13:54;;;;;;;2.33;1.55;;;16.40;90.00;;;;;;5008961;28;20046;-66
2021/09/30 10:16:24;;;;;;;4.32;1.52;;;16.50;90.10;;;;;;5005918;28;20117;-65
2021/09/30 10:18:54;;;;;;;3.13;1.48;;;16.50;90.10;;;;;;5012512;28;20030;-65
2021/09/30 10:21:20;;;;;;;5.03;1.42;;;16.60;89.80;;;;;;5010936;28;20041;-65
2021/09/30 10:23:51;;;;;;;8.27;1.70;;;16.60;90.00;;;;;;5010628;28;20026;-65
2021/09/30 10:26:23;;;;;;;3.88;1.50;;;16.70;89.60;;;;;;5010253;28;20038;-65
2021/09/30 10:28:49;;;;;;;5.43;1.55;;;16.80;89.40;;;;;;5010879;28;20030;-64
2021/09/30 10:31:27;;;;;;;4.90;1.50;;;16.80;89.00;;;;;;5006562;28;20048;-63
2021/09/30 10:33:54;;;;;;;4.50;1.58;;;16.90;89.10;;;;;;5010883;28;20053;-64
2021/09/30 10:36:35;;;;;;;4.70;1.80;;;17.00;89.10;;;;;;5012627;28;20022;-68
2021/09/30 10:39:15;;;;;;;5.47;1.65;;;17.10;88.80;;;;;;5010653;28;20029;-66
2021/09/30 10:41:41;;;;;;;4.22;1.30;;;17.20;89.10;;;;;;5009855;28;20042;-66
2021/09/30 10:44:14;;;;;;;3.92;1.77;;;17.40;88.20;;;;;;5006364;28;20085;-66
2021/09/30 10:46:55;;;;;;;5.93;1.35;;;17.50;87.40;;;;;;5000718;28;20033;-67
2021/09/30 10:49:31;;;;;;;4.65;1.45;;;17.60;86.90;;;;;;5010542;28;20038;-67
2021/09/30 10:52:17;;;;;;;4.47;1.40;;;17.60;86.90;;;;;;5011664;28;20029;-67
2021/09/30 10:55:11;;;;;;;3.95;1.77;;;17.80;86.70;;;;;;5009749;28;20050;-67
2021/09/30 10:57:45;;;;;;;6.88;1.77;;;17.80;86.30;;;;;;5020190;28;20470;-67
2021/09/30 11:00:16;;;;;;;4.05;1.40;;;17.90;86.00;;;;;;5011650;28;20026;-67
2021/09/30 11:03:00;;;;;;;2.78;1.30;;;18.00;86.40;;;;;;5009524;28;20775;-66
2021/09/30 11:05:27;;;;;;;7.70;2.30;;;18.10;85.80;;;;;;5019843;28;20030;-67
2021/09/30 11:08:18;;;;;;;2.35;1.30;;;18.20;85.30;;;;;;5003489;28;20022;-67
2021/09/30 11:11:06;;;;;;;3.35;1.20;;;18.30;84.50;;;;;;5009124;28;20485;-68
2021/09/30 11:14:00;;;;;;;5.35;1.40;;;18.40;84.30;;;;;;5006159;28;20084;-67
2021/09/30 11:16:42;;;;;;;5.38;1.77;;;18.40;83.60;;;;;;4999815;28;20168;-67
2021/09/30 11:19:38;;;;;;;3.33;1.50;;;18.60;83.60;;;;;;4995067;28;20057;-68
2021/09/30 11:22:06;;;;;;;2.45;1.60;;;18.70;82.50;;;;;;4991526;28;20042;-67
2021/09/30 11:24:53;;;;;;;4.88;1.20;;;18.70;82.10;;;;;;4991858;28;20037;-67
2021/09/30 11:27:20;;;;;;;5.10;1.45;;;18.80;81.40;;;;;;4995046;28;20038;-67
2021/09/30 11:29:47;;;;;;;2.97;1.27;;;18.80;81.40;;;;;;5004311;28;20528;-67
2021/09/30 11:32:12;;;;;;;3.05;1.25;;;18.80;80.90;;;;;;4994543;28;20092;-68
2021/09/30 11:34:48;;;;;;;4.63;1.70;;;18.90;80.00;;;;;;5009815;28;20030;-68
2021/09/30 11:37:43;;;;;;;3.63;1.30;;;18.80;79.70;;;;;;4992077;28;20034;-68
2021/09/30 11:40:16;;;;;;;4.07;1.58;;;18.80;79.30;;;;;;4998650;28;20469;-68
2021/09/30 11:42:47;;;;;;;4.38;1.60;;;18.80;79.00;;;;;;4992141;28;20049;-67
2021/09/30 11:45:15;;;;;;;2.95;1.50;;;18.80;78.80;;;;;;4999196;28;20064;-68
2021/09/30 11:47:42;;;;;;;4.28;1.45;;;18.80;78.60;;;;;;5010095;28;20030;-67
2021/09/30 11:50:20;;;;;;;3.97;1.33;;;18.80;78.20;;;;;;5005256;28;20077;-68
2021/09/30 11:52:55;;;;;;;3.53;1.73;;;18.80;78.00;;;;;;5011048;28;20036;-66
2021/09/30 11:55:20;;;;;;;3.65;1.42;;;18.70;78.20;;;;;;5009857;28;20046;-66
2021/09/30 11:57:54;;;;;;;5.07;1.75;;;18.70;78.20;;;;;;4996212;28;20053;-65
2021/09/30 12:00:20;;;;;;;6.25;1.80;;;18.60;78.20;;;;;;5009733;28;20088;-66
2021/09/30 12:03:04;;;;;;;3.47;1.92;;;18.60;78.00;;;;;;5003395;28;20046;-66
2021/09/30 12:05:33;;;;;;;2.88;1.73;;;18.60;78.30;;;;;;4995049;28;20064;-66
2021/09/30 12:08:00;;;;;;;4.88;1.88;;;18.60;78.00;;;;;;5008781;28;20116;-66
2021/09/30 12:10:26;;;;;;;2.97;1.80;;;18.50;78.00;;;;;;5004584;28;20116;-69
2021/09/30 12:12:52;;;;;;;4.05;1.67;;;18.50;77.70;;;;;;5002708;28;20103;-69
2021/09/30 12:15:17;;;;;;;4.45;1.70;;;18.40;77.70;;;;;;5018660;28;20454;-69
2021/09/30 12:17:43;;;;;;;3.88;2.10;;;18.40;77.90;;;;;;5014801;28;20029;-69
2021/09/30 12:20:12;;;;;;;4.97;2.00;;;18.30;78.10;;;;;;5014626;28;20502;-69
2021/09/30 12:22:44;;;;;;;3.53;1.67;;;18.20;78.20;;;;;;5019091;28;20049;-69
2021/09/30 12:25:16;;;;;;;4.32;1.65;;;18.20;78.20;;;;;;5018166;28;20383;-69
2021/09/30 12:27:45;;;;;;;3.53;1.63;;;18.20;78.10;;;;;;5010322;28;20041;-70
2021/09/30 12:30:13;;;;;;;4.13;1.33;;;18.20;78.20;;;;;;5006416;28;20025;-69
2021/09/30 12:32:43;;;;;;;3.97;1.38;;;18.30;78.10;;;;;;5007016;28;20109;-69
2021/09/30 12:35:32;;;;;;;4.35;1.83;;;18.20;78.20;;;;;;5012081;28;20041;-70
2021/09/30 12:38:04;;;;;;;2.95;1.55;;;18.30;78.50;;;;;;5013863;28;20038;-68
2021/09/30 12:40:39;;;;;;;3.88;1.52;;;18.40;78.80;;;;;;5014227;28;20030;-69
2021/09/30 12:43:14;;;;;;;4.03;1.65;;;18.40;78.60;;;;;;5004940;28;20038;-69
2021/09/30 12:46:02;;;;;;;4.07;1.80;;;18.50;78.10;;;;;;5011594;28;20030;-70
2021/09/30 12:48:33;;;;;;;5.72;1.95;;;18.70;78.70;;;;;;5000330;28;20038;-69
2021/09/30 12:51:04;;;;;;;4.28;2.20;;;18.80;77.70;;;;;;5005664;28;20356;-68
2021/09/30 12:53:31;;;;;;;4.35;1.98;;;18.80;77.20;;;;;;5012241;28;20038;-68
2021/09/30 12:56:05;;;;;;;3.55;1.50;;;18.90;77.00;;;;;;5013977;28;20030;-69
2021/09/30 12:58:34;;;;;;;6.45;2.10;;;19.00;76.00;;;;;;5014291;28;20069;-68
2021/09/30 13:01:18;;;;;;;3.72;1.55;;;19.10;75.70;;;;;;5013656;28;20133;-68
2021/09/30 13:04:02;;;;;;;4.32;2.03;;;19.20;74.80;;;;;;4994950;28;20084;-68
2021/09/30 13:06:27;;;;;;;4.55;1.63;;;19.20;74.30;;;;;;5001800;28;20133;-68
2021/09/30 13:08:53;;;;;;;2.35;1.85;;;19.10;73.40;;;;;;5011546;28;20120;-69
2021/09/30 13:11:30;;;;;;;4.90;1.90;;;19.20;74.00;;;;;;5010959;28;20470;-68
2021/09/30 13:14:31;;;;;;;5.57;1.88;;;19.20;73.00;;;;;;5003105;28;20029;-69
2021/09/30 13:17:12;;;;;;;5.18;1.75;;;19.20;73.70;;;;;;5007409;28;20026;-68
2021/09/30 13:19:48;;;;;;;3.03;1.60;;;19.20;73.60;;;;;;5006180;28;20025;-68
2021/09/30 13:22:21;;;;;;;5.78;1.85;;;19.20;73.30;;;;;;5005870;28;20062;-69
2021/09/30 13:24:49;;;;;;;3.33;1.50;;;19.30;72.60;;;;;;5005976;28;20064;-69
2021/09/30 13:27:16;;;;;;;3.95;1.40;;;19.30;71.80;;;;;;5005086;28;20037;-69
2021/09/30 13:29:44;;;;;;;2.90;1.52;;;19.30;71.30;;;;;;5004726;28;20076;-69
2021/09/30 13:32:10;;;;;;;4.97;1.85;;;19.30;71.60;;;;;;5012158;28;20363;-69
2021/09/30 13:34:35;;;;;;;3.15;1.60;;;19.20;70.70;;;;;;5011140;28;20693;-69
2021/09/30 13:37:01;;;;;;;3.85;1.38;;;19.20;70.20;;;;;;5012259;28;20022;-69
2021/09/30 13:39:27;;;;;;;5.97;2.13;;;19.20;70.60;;;;;;5012463;28;20106;-68
2021/09/30 13:41:52;;;;;;;3.53;1.50;;;19.30;70.20;;;;;;5013158;28;20038;-69
2021/09/30 13:44:18;;;;;;;5.05;1.75;;;19.30;70.80;;;;;;5011065;28;20022;-69
2021/09/30 13:46:43;;;;;;;5.70;1.80;;;19.30;70.10;;;;;;5012743;28;20030;-69
2021/09/30 13:49:09;;;;;;;2.47;1.15;;;19.50;69.90;;;;;;5012632;28;20033;-69
2021/09/30 13:51:34;;;;;;;3.90;1.80;;;19.50;69.20;;;;;;5012967;28;20033;-69
2021/09/30 13:54:00;;;;;;;3.75;1.45;;;19.60;69.00;;;;;;5003525;28;20700;-69
2021/09/30 13:56:27;;;;;;;3.42;1.30;;;19.80;68.50;;;;;;5011428;28;20072;-69
2021/09/30 13:58:53;;;;;;;3.03;1.75;;;19.80;68.10;;;;;;5012207;28;20434;-69
2021/09/30 14:01:19;;;;;;;3.63;1.70;;;19.90;67.20;;;;;;5012637;28;20038;-69
2021/09/30 14:03:44;;;;;;;3.20;1.30;;;20.00;67.70;;;;;;5012337;28;20044;-69
2021/09/30 14:06:12;;;;;;;4.15;2.03;;;19.90;67.40;;;;;;5009820;28;20486;-69
2021/09/30 14:08:40;;;;;;;3.67;1.52;;;19.80;67.00;;;;;;4995292;28;20617;-69
2021/09/30 14:11:07;;;;;;;3.88;1.40;;;19.70;66.40;;;;;;5005234;28;20029;-69
2021/09/30 14:13:33;;;;;;;4.78;1.40;;;19.70;66.30;;;;;;5012591;28;20379;-69
2021/09/30 14:15:58;;;;;;;3.83;1.80;;;19.60;66.20;;;;;;5011213;28;20022;-69
2021/09/30 14:18:24;;;;;;;3.63;1.88;;;19.70;66.60;;;;;;5012571;28;20124;-69
2021/09/30 14:20:51;;;;;;;6.35;1.92;;;19.70;65.80;;;;;;5011137;28;20041;-69
2021/09/30 14:23:17;;;;;;;6.07;2.28;;;19.70;66.10;;;;;;5011317;28;20030;-69
2021/09/30 14:25:43;;;;;;;6.35;2.70;;;19.70;65.60;;;;;;5009925;28;20025;-69
2021/09/30 14:28:08;;;;;;;5.65;2.45;;;19.70;66.00;;;;;;5002403;28;20481;-69
2021/09/30 14:30:34;;;;;;;5.60;2.50;;;19.80;66.30;;;;;;5008232;28;20033;-69
2021/09/30 14:33:00;;;;;;;4.93;1.90;;;19.80;66.30;;;;;;5012701;28;20021;-69
2021/09/30 14:35:25;;;;;;;5.95;2.47;;;19.70;66.40;;;;;;5009352;28;20084;-69
2021/09/30 14:37:51;;;;;;;2.40;1.58;;;19.70;65.30;;;;;;4992494;28;20394;-69
2021/09/30 14:40:16;;;;;;;4.70;1.85;;;19.70;65.20;;;;;;5004252;28;20022;-68
2021/09/30 14:42:42;;;;;;;5.35;2.05;;;19.60;65.20;;;;;;5011911;28;20041;-69
2021/09/30 14:45:08;;;;;;;4.10;1.58;;;19.60;65.80;;;;;;5010629;28;20029;-68
2021/09/30 14:47:33;;;;;;;7.93;2.10;;;19.60;65.80;;;;;;5028485;28;20045;-68
2021/09/30 14:49:59;;;;;;;4.95;2.10;;;19.60;65.50;;;;;;5010995;28;20105;-69
2021/09/30 14:52:25;;;;;;;4.60;1.80;;;19.60;65.80;;;;;;4998103;28;20037;-68
2021/09/30 14:54:51;;;;;;;5.63;1.95;;;19.50;66.20;;;;;;5010616;28;20245;-69
2021/09/30 14:57:17;;;;;;;4.13;1.85;;;19.50;66.00;;;;;;5008930;28;20038;-69
2021/09/30 14:59:43;;;;;;;6.13;1.80;;;19.50;66.20;;;;;;4995859;28;20026;-69
2021/09/30 15:02:09;;;;;;;6.22;2.50;;;19.50;66.10;;;;;;5002648;28;20065;-69
2021/09/30 15:04:35;;;;;;;6.80;3.20;;;19.50;66.10;;;;;;4995948;28;20110;-69
2021/09/30 15:07:01;;;;;;;7.70;3.60;;;19.50;66.30;;;;;;5008085;28;20612;-69
2021/09/30 15:09:26;;;;;;;6.68;2.75;;;19.50;66.20;;;;;;5002759;28;20037;-69
2021/09/30 15:11:53;;;;;;;5.13;3.25;;;19.50;66.10;;;;;;5000265;28;20030;-69
2021/09/30 15:14:19;;;;;;;7.32;2.58;;;19.40;66.30;;;;;;5004260;28;20026;-69
2021/09/30 15:17:00;;;;;;;6.35;3.17;;;19.40;66.50;;;;;;5000310;28;20073;-69
2021/09/30 15:19:28;;;;;;;7.13;3.35;;;19.40;66.50;;;;;;5007006;28;20030;-69
2021/09/30 15:21:54;;;;;;;7.13;3.00;;;19.40;66.50;;;;;;5009094;28;20474;-69
2021/09/30 15:24:20;;;;;;;9.70;3.88;;;19.30;66.70;;;;;;4997784;28;20065;-69
2021/09/30 15:26:48;;;;;;;6.75;3.17;;;19.30;66.70;;;;;;5008406;28;20030;-69
2021/09/30 15:29:17;;;;;;;10.93;4.65;;;19.30;67.10;;;;;;4999555;28;20066;-70
2021/09/30 15:31:43;;;;;;;6.10;2.90;;;19.20;66.80;;;;;;4999156;28;20355;-69
2021/09/30 15:34:10;;;;;;;10.70;2.92;;;19.20;67.00;;;;;;5005915;28;20033;-70